Decoded Metar for LEAS (ASTURIAS in SPAIN) (IATA:OVD) | Meteo·Mobile Aviation Weather
aviador You're here:

LEAS Decoded Metar

ASTURIAS in SPAIN
Report Time2019-10-19 21:30:00
UTC Time2019-10-19 22:00:22
Flight Rules mvfr MVFR
WindVRB at 02 kt
Visibility7000 m
Phenomena:Rain
Clouds:Scattered 010 Hf
Broken 020 Hf
Expected CloudBase > 400 ft AGL from Temp-Dew spread
Ceiling2,000 ft
Temp12°C (ISA -2)
Dew Point11°C (94% RH)
AAT11.6°C
QNH1006 hPa
Density Alt604 ft
Elevation440 ft
Report Wrong Elevation
Raw Report
LEAS 192130Z VRB02KT 7000 RA SCT010 BKN020 12/11 Q1006 TEMPO 3000
RA BKN010=

Extra information for LEAS:More info

Metar Taf Metar & Taf Last 4 Metars F.Rules Stats Wind Profile Meteogram Temp Stats Airport Information Weather charts Add Link Nearby VenuesMetar ALERT Operation Metar Decoded Social comments